sensor_id;sensor_type;location;lat;lon;timestamp;temperature;humidity
53876;DHT22;39789;53.216;5.624;2023-02-28T00:38:34;4.30;99.90
53876;DHT22;39789;53.216;5.624;2023-02-28T00:41:21;5.40;99.90
53876;DHT22;39789;53.216;5.624;2023-02-28T00:48:32;4.80;99.90
53876;DHT22;39789;53.216;5.624;2023-02-28T01:24:14;3.30;99.90
53876;DHT22;39789;53.216;5.624;2023-02-28T01:27:07;5.30;99.90
53876;DHT22;39789;53.216;5.624;2023-02-28T01:33:59;4.00;99.90
53876;DHT22;39789;53.216;5.624;2023-02-28T01:45:26;3.80;99.90
53876;DHT22;39789;53.216;5.624;2023-02-28T01:53:03;3.30;99.90
53876;DHT22;39789;53.216;5.624;2023-02-28T02:03:54;5.60;99.90
53876;DHT22;39789;53.216;5.624;2023-02-28T02:11:22;5.40;99.90
53876;DHT22;39789;53.216;5.624;2023-02-28T02:25:30;4.40;99.90
53876;DHT22;39789;53.216;5.624;2023-02-28T02:34:45;5.10;99.90
53876;DHT22;39789;53.216;5.624;2023-02-28T02:55:43;4.70;99.90
53876;DHT22;39789;53.216;5.624;2023-02-28T02:59:18;5.50;99.90
53876;DHT22;39789;53.216;5.624;2023-02-28T03:28:35;5.30;99.90
53876;DHT22;39789;53.216;5.624;2023-02-28T03:35:25;6.00;99.90
53876;DHT22;39789;53.216;5.624;2023-02-28T03:41:59;4.10;99.90
53876;DHT22;39789;53.216;5.624;2023-02-28T03:53:04;4.40;99.90
53876;DHT22;39789;53.216;5.624;2023-02-28T04:00:04;4.20;99.90
53876;DHT22;39789;53.216;5.624;2023-02-28T04:03:37;4.20;99.90
53876;DHT22;39789;53.216;5.624;2023-02-28T04:06:51;5.20;99.90
53876;DHT22;39789;53.216;5.624;2023-02-28T04:09:57;5.20;99.90
53876;DHT22;39789;53.216;5.624;2023-02-28T04:17:14;6.20;99.90
53876;DHT22;39789;53.216;5.624;2023-02-28T04:24:40;5.60;99.90
53876;DHT22;39789;53.216;5.624;2023-02-28T04:31:18;6.00;99.90
53876;DHT22;39789;53.216;5.624;2023-02-28T04:34:20;6.30;99.90
53876;DHT22;39789;53.216;5.624;2023-02-28T04:37:06;5.20;99.90
53876;DHT22;39789;53.216;5.624;2023-02-28T04:39:44;5.10;99.90
53876;DHT22;39789;53.216;5.624;2023-02-28T04:42:16;6.50;99.90
53876;DHT22;39789;53.216;5.624;2023-02-28T04:45:12;5.40;99.90
53876;DHT22;39789;53.216;5.624;2023-02-28T04:51:36;5.70;99.90
53876;DHT22;39789;53.216;5.624;2023-02-28T04:58:25;5.10;99.90
53876;DHT22;39789;53.216;5.624;2023-02-28T05:01:52;6.50;99.90
53876;DHT22;39789;53.216;5.624;2023-02-28T05:08:14;5.70;99.90
53876;DHT22;39789;53.216;5.624;2023-02-28T05:15:18;5.40;99.90
53876;DHT22;39789;53.216;5.624;2023-02-28T05:22:12;4.60;99.90
53876;DHT22;39789;53.216;5.624;2023-02-28T05:28:14;5.30;99.90
53876;DHT22;39789;53.216;5.624;2023-02-28T05:34:51;6.30;99.90
53876;DHT22;39789;53.216;5.624;2023-02-28T05:40:59;5.30;99.90
53876;DHT22;39789;53.216;5.624;2023-02-28T05:44:10;5.50;99.90
53876;DHT22;39789;53.216;5.624;2023-02-28T05:46:53;5.40;99.90
53876;DHT22;39789;53.216;5.624;2023-02-28T06:03:52;5.60;99.90
53876;DHT22;39789;53.216;5.624;2023-02-28T06:09:10;5.50;99.90
53876;DHT22;39789;53.216;5.624;2023-02-28T06:11:41;5.60;99.90
53876;DHT22;39789;53.216;5.624;2023-02-28T06:17:30;5.60;99.90
53876;DHT22;39789;53.216;5.624;2023-02-28T06:23:36;5.00;99.90
53876;DHT22;39789;53.216;5.624;2023-02-28T06:26:02;6.90;99.90
53876;DHT22;39789;53.216;5.624;2023-02-28T06:28:38;4.90;99.90
53876;DHT22;39789;53.216;5.624;2023-02-28T06:31:47;5.40;99.90
53876;DHT22;39789;53.216;5.624;2023-02-28T06:38:33;5.70;99.90
53876;DHT22;39789;53.216;5.624;2023-02-28T06:41:10;5.40;99.90
53876;DHT22;39789;53.216;5.624;2023-02-28T06:43:41;5.70;99.90
53876;DHT22;39789;53.216;5.624;2023-02-28T06:46:10;5.90;99.90
53876;DHT22;39789;53.216;5.624;2023-02-28T06:48:36;5.80;99.90
53876;DHT22;39789;53.216;5.624;2023-02-28T06:51:14;5.20;99.90
53876;DHT22;39789;53.216;5.624;2023-02-28T06:56:30;5.70;99.90
53876;DHT22;39789;53.216;5.624;2023-02-28T06:59:03;5.70;99.90
53876;DHT22;39789;53.216;5.624;2023-02-28T07:01:33;7.00;99.90
53876;DHT22;39789;53.216;5.624;2023-02-28T07:03:59;5.20;99.90
53876;DHT22;39789;53.216;5.624;2023-02-28T07:06:26;5.50;99.90
53876;DHT22;39789;53.216;5.624;2023-02-28T07:08:52;5.30;99.90
53876;DHT22;39789;53.216;5.624;2023-02-28T07:11:19;5.00;99.90
53876;DHT22;39789;53.216;5.624;2023-02-28T07:13:45;4.70;99.90
53876;DHT22;39789;53.216;5.624;2023-02-28T07:16:13;4.50;99.90
53876;DHT22;39789;53.216;5.624;2023-02-28T07:18:39;4.20;99.90
53876;DHT22;39789;53.216;5.624;2023-02-28T07:21:07;4.20;99.90
53876;DHT22;39789;53.216;5.624;2023-02-28T07:23:33;3.80;99.90
53876;DHT22;39789;53.216;5.624;2023-02-28T07:25:59;4.20;99.90
53876;DHT22;39789;53.216;5.624;2023-02-28T07:28:25;4.10;99.90
53876;DHT22;39789;53.216;5.624;2023-02-28T07:30:50;4.00;99.90
53876;DHT22;39789;53.216;5.624;2023-02-28T07:33:17;3.70;99.90
53876;DHT22;39789;53.216;5.624;2023-02-28T07:35:43;3.80;99.90
53876;DHT22;39789;53.216;5.624;2023-02-28T07:38:09;3.70;99.90
53876;DHT22;39789;53.216;5.624;2023-02-28T07:40:36;5.20;99.90
53876;DHT22;39789;53.216;5.624;2023-02-28T07:43:02;3.80;99.90
53876;DHT22;39789;53.216;5.624;2023-02-28T07:45:29;3.80;99.90
53876;DHT22;39789;53.216;5.624;2023-02-28T07:47:55;3.70;99.90
53876;DHT22;39789;53.216;5.624;2023-02-28T07:50:23;3.70;99.90
53876;DHT22;39789;53.216;5.624;2023-02-28T07:52:49;3.60;99.90
53876;DHT22;39789;53.216;5.624;2023-02-28T07:55:14;3.60;99.90
53876;DHT22;39789;53.216;5.624;2023-02-28T07:57:42;3.60;99.90
53876;DHT22;39789;53.216;5.624;2023-02-28T08:00:10;3.60;99.90
53876;DHT22;39789;53.216;5.624;2023-02-28T08:02:36;3.60;99.90
53876;DHT22;39789;53.216;5.624;2023-02-28T08:05:02;3.60;99.90
53876;DHT22;39789;53.216;5.624;2023-02-28T08:07:27;3.60;99.90
53876;DHT22;39789;53.216;5.624;2023-02-28T08:09:53;3.60;99.90
53876;DHT22;39789;53.216;5.624;2023-02-28T08:12:19;3.60;99.90
53876;DHT22;39789;53.216;5.624;2023-02-28T08:14:45;3.60;99.90
53876;DHT22;39789;53.216;5.624;2023-02-28T08:17:11;3.70;99.90
53876;DHT22;39789;53.216;5.624;2023-02-28T08:19:37;3.60;99.90
53876;DHT22;39789;53.216;5.624;2023-02-28T08:22:03;3.60;99.90
53876;DHT22;39789;53.216;5.624;2023-02-28T08:24:29;3.60;99.90
53876;DHT22;39789;53.216;5.624;2023-02-28T08:26:55;3.60;99.90
53876;DHT22;39789;53.216;5.624;2023-02-28T08:29:21;3.70;99.90
53876;DHT22;39789;53.216;5.624;2023-02-28T08:31:47;3.60;99.90
53876;DHT22;39789;53.216;5.624;2023-02-28T08:34:14;3.60;99.90
53876;DHT22;39789;53.216;5.624;2023-02-28T08:36:41;3.60;99.90
53876;DHT22;39789;53.216;5.624;2023-02-28T08:39:08;3.60;99.90
53876;DHT22;39789;53.216;5.624;2023-02-28T08:41:34;3.60;99.90
53876;DHT22;39789;53.216;5.624;2023-02-28T08:44:00;3.60;99.90
53876;DHT22;39789;53.216;5.624;2023-02-28T08:46:26;3.60;99.90
53876;DHT22;39789;53.216;5.624;2023-02-28T08:48:53;3.60;99.90
53876;DHT22;39789;53.216;5.624;2023-02-28T08:51:20;4.50;99.90
53876;DHT22;39789;53.216;5.624;2023-02-28T08:53:58;3.50;99.90
53876;DHT22;39789;53.216;5.624;2023-02-28T08:56:26;3.70;99.90
53876;DHT22;39789;53.216;5.624;2023-02-28T08:59:34;3.70;99.90
53876;DHT22;39789;53.216;5.624;2023-02-28T09:01:59;3.80;99.90
53876;DHT22;39789;53.216;5.624;2023-02-28T09:04:25;3.80;99.90
53876;DHT22;39789;53.216;5.624;2023-02-28T09:10:39;3.80;99.90
53876;DHT22;39789;53.216;5.624;2023-02-28T09:13:07;3.90;99.90
53876;DHT22;39789;53.216;5.624;2023-02-28T09:15:37;4.00;99.90
53876;DHT22;39789;53.216;5.624;2023-02-28T09:21:49;5.40;99.90
53876;DHT22;39789;53.216;5.624;2023-02-28T09:24:17;4.30;99.90
53876;DHT22;39789;53.216;5.624;2023-02-28T09:26:45;4.70;99.90
53876;DHT22;39789;53.216;5.624;2023-02-28T09:29:11;5.40;99.90
53876;DHT22;39789;53.216;5.624;2023-02-28T09:31:37;4.30;99.90
53876;DHT22;39789;53.216;5.624;2023-02-28T09:34:04;4.20;99.90
53876;DHT22;39789;53.216;5.624;2023-02-28T09:36:37;5.00;99.90
53876;DHT22;39789;53.216;5.624;2023-02-28T09:39:03;6.00;99.90
53876;DHT22;39789;53.216;5.624;2023-02-28T09:41:42;3.40;99.90
53876;DHT22;39789;53.216;5.624;2023-02-28T09:47:36;4.90;99.90
53876;DHT22;39789;53.216;5.624;2023-02-28T09:53:48;5.60;99.90
53876;DHT22;39789;53.216;5.624;2023-02-28T09:56:40;5.90;99.90
53876;DHT22;39789;53.216;5.624;2023-02-28T10:09:59;5.40;99.90
53876;DHT22;39789;53.216;5.624;2023-02-28T10:12:32;4.90;99.90
53876;DHT22;39789;53.216;5.624;2023-02-28T10:14:59;6.70;99.90
53876;DHT22;39789;53.216;5.624;2023-02-28T10:17:48;4.90;99.90
53876;DHT22;39789;53.216;5.624;2023-02-28T10:20:27;6.00;99.90
53876;DHT22;39789;53.216;5.624;2023-02-28T10:23:14;5.80;99.90
53876;DHT22;39789;53.216;5.624;2023-02-28T10:26:37;6.00;99.90
53876;DHT22;39789;53.216;5.624;2023-02-28T10:29:04;6.20;99.90
53876;DHT22;39789;53.216;5.624;2023-02-28T10:31:29;5.40;99.90
53876;DHT22;39789;53.216;5.624;2023-02-28T10:33:58;5.20;99.90
53876;DHT22;39789;53.216;5.624;2023-02-28T10:36:24;4.80;99.90
53876;DHT22;39789;53.216;5.624;2023-02-28T10:42:40;5.90;99.90
53876;DHT22;39789;53.216;5.624;2023-02-28T10:49:06;6.40;99.90
53876;DHT22;39789;53.216;5.624;2023-02-28T10:51:58;7.00;99.90
53876;DHT22;39789;53.216;5.624;2023-02-28T10:54:49;5.10;99.90
53876;DHT22;39789;53.216;5.624;2023-02-28T10:57:26;6.00;99.90
53876;DHT22;39789;53.216;5.624;2023-02-28T11:02:43;5.90;99.90
53876;DHT22;39789;53.216;5.624;2023-02-28T11:05:40;6.70;99.90
53876;DHT22;39789;53.216;5.624;2023-02-28T11:08:16;5.90;99.90
53876;DHT22;39789;53.216;5.624;2023-02-28T11:11:09;6.10;99.90
53876;DHT22;39789;53.216;5.624;2023-02-28T11:13:36;6.30;99.90
53876;DHT22;39789;53.216;5.624;2023-02-28T11:16:11;6.90;99.90
53876;DHT22;39789;53.216;5.624;2023-02-28T11:18:51;6.30;99.90
53876;DHT22;39789;53.216;5.624;2023-02-28T11:23:49;5.50;99.90
53876;DHT22;39789;53.216;5.624;2023-02-28T11:26:17;6.80;99.90
53876;DHT22;39789;53.216;5.624;2023-02-28T11:29:16;6.40;99.90
53876;DHT22;39789;53.216;5.624;2023-02-28T11:32:10;7.40;99.90
53876;DHT22;39789;53.216;5.624;2023-02-28T11:37:37;6.70;99.90
53876;DHT22;39789;53.216;5.624;2023-02-28T11:40:18;7.10;99.90
53876;DHT22;39789;53.216;5.624;2023-02-28T11:47:04;6.60;99.90
53876;DHT22;39789;53.216;5.624;2023-02-28T11:55:37;7.70;99.90
53876;DHT22;39789;53.216;5.624;2023-02-28T12:04:18;8.10;99.90
53876;DHT22;39789;53.216;5.624;2023-02-28T12:09:58;8.30;99.90
53876;DHT22;39789;53.216;5.624;2023-02-28T12:15:13;8.30;99.90
53876;DHT22;39789;53.216;5.624;2023-02-28T12:18:00;8.20;99.90
53876;DHT22;39789;53.216;5.624;2023-02-28T12:20:53;8.20;99.90
53876;DHT22;39789;53.216;5.624;2023-02-28T12:28:44;8.20;99.90
53876;DHT22;39789;53.216;5.624;2023-02-28T12:31:18;8.20;99.90
53876;DHT22;39789;53.216;5.624;2023-02-28T12:33:52;8.20;99.90
53876;DHT22;39789;53.216;5.624;2023-02-28T12:36:20;8.20;99.90
53876;DHT22;39789;53.216;5.624;2023-02-28T12:39:07;8.20;99.90
53876;DHT22;39789;53.216;5.624;2023-02-28T12:41:47;8.20;99.90
53876;DHT22;39789;53.216;5.624;2023-02-28T12:44:21;8.20;99.90
53876;DHT22;39789;53.216;5.624;2023-02-28T12:46:51;8.20;99.90
53876;DHT22;39789;53.216;5.624;2023-02-28T12:49:25;8.10;99.90
53876;DHT22;39789;53.216;5.624;2023-02-28T12:51:52;8.10;99.90
53876;DHT22;39789;53.216;5.624;2023-02-28T12:57:34;8.00;99.90
53876;DHT22;39789;53.216;5.624;2023-02-28T12:59:41;8.10;99.90
53876;DHT22;39789;53.216;5.624;2023-02-28T13:02:34;8.20;99.90
53876;DHT22;39789;53.216;5.624;2023-02-28T13:05:46;8.30;99.90
53876;DHT22;39789;53.216;5.624;2023-02-28T13:11:28;8.30;99.90
53876;DHT22;39789;53.216;5.624;2023-02-28T13:14:19;8.10;99.90
53876;DHT22;39789;53.216;5.624;2023-02-28T13:16:54;8.00;99.90
53876;DHT22;39789;53.216;5.624;2023-02-28T13:19:22;8.00;99.90
53876;DHT22;39789;53.216;5.624;2023-02-28T13:21:51;8.00;99.90
53876;DHT22;39789;53.216;5.624;2023-02-28T13:24:44;8.10;99.90
53876;DHT22;39789;53.216;5.624;2023-02-28T13:27:37;8.20;99.90
53876;DHT22;39789;53.216;5.624;2023-02-28T13:33:26;8.50;99.90
53876;DHT22;39789;53.216;5.624;2023-02-28T13:36:26;8.50;99.90
53876;DHT22;39789;53.216;5.624;2023-02-28T13:42:50;8.20;99.90
53876;DHT22;39789;53.216;5.624;2023-02-28T13:45:33;8.00;99.90
53876;DHT22;39789;53.216;5.624;2023-02-28T13:48:25;8.30;99.90
53876;DHT22;39789;53.216;5.624;2023-02-28T13:50:53;9.60;99.90
53876;DHT22;39789;53.216;5.624;2023-02-28T14:03:26;7.90;99.90
53876;DHT22;39789;53.216;5.624;2023-02-28T14:06:19;8.00;99.90
53876;DHT22;39789;53.216;5.624;2023-02-28T14:11:30;8.40;99.90
53876;DHT22;39789;53.216;5.624;2023-02-28T14:13:58;8.50;99.90
53876;DHT22;39789;53.216;5.624;2023-02-28T14:16:27;8.50;99.90
53876;DHT22;39789;53.216;5.624;2023-02-28T14:19:14;8.50;99.90
53876;DHT22;39789;53.216;5.624;2023-02-28T14:27:49;8.50;99.90
53876;DHT22;39789;53.216;5.624;2023-02-28T14:36:41;8.90;99.90
53876;DHT22;39789;53.216;5.624;2023-02-28T14:43:25;9.20;99.90
53876;DHT22;39789;53.216;5.624;2023-02-28T14:49:57;8.50;99.90
53876;DHT22;39789;53.216;5.624;2023-02-28T14:56:39;7.60;99.90
53876;DHT22;39789;53.216;5.624;2023-02-28T14:59:25;8.50;99.90
53876;DHT22;39789;53.216;5.624;2023-02-28T15:02:24;8.30;99.90
53876;DHT22;39789;53.216;5.624;2023-02-28T15:05:29;7.50;99.90
53876;DHT22;39789;53.216;5.624;2023-02-28T15:08:16;8.20;99.90
53876;DHT22;39789;53.216;5.624;2023-02-28T15:11:20;6.80;99.90
53876;DHT22;39789;53.216;5.624;2023-02-28T15:17:39;8.90;99.90
53876;DHT22;39789;53.216;5.624;2023-02-28T15:20:05;6.80;99.90
53876;DHT22;39789;53.216;5.624;2023-02-28T15:22:36;7.30;99.90
53876;DHT22;39789;53.216;5.624;2023-02-28T15:25:03;7.80;99.90
53876;DHT22;39789;53.216;5.624;2023-02-28T15:27:32;7.20;99.90
53876;DHT22;39789;53.216;5.624;2023-02-28T15:30:06;7.60;99.90
53876;DHT22;39789;53.216;5.624;2023-02-28T15:32:35;7.10;99.90
53876;DHT22;39789;53.216;5.624;2023-02-28T15:41:41;7.00;99.90
53876;DHT22;39789;53.216;5.624;2023-02-28T15:44:24;7.00;99.90
53876;DHT22;39789;53.216;5.624;2023-02-28T15:47:11;6.90;99.90
53876;DHT22;39789;53.216;5.624;2023-02-28T15:50:02;6.70;99.90
53876;DHT22;39789;53.216;5.624;2023-02-28T15:52:41;6.70;99.90
53876;DHT22;39789;53.216;5.624;2023-02-28T15:55:28;6.70;99.90
53876;DHT22;39789;53.216;5.624;2023-02-28T15:58:11;6.60;99.90
53876;DHT22;39789;53.216;5.624;2023-02-28T16:01:17;6.60;99.90
53876;DHT22;39789;53.216;5.624;2023-02-28T16:04:15;6.50;99.90
53876;DHT22;39789;53.216;5.624;2023-02-28T16:09:31;6.40;99.90
53876;DHT22;39789;53.216;5.624;2023-02-28T16:12:02;6.30;99.90
53876;DHT22;39789;53.216;5.624;2023-02-28T16:14:28;6.30;99.90
53876;DHT22;39789;53.216;5.624;2023-02-28T16:17:06;6.30;99.90
53876;DHT22;39789;53.216;5.624;2023-02-28T16:19:34;6.20;99.90
53876;DHT22;39789;53.216;5.624;2023-02-28T16:22:00;6.20;99.90
53876;DHT22;39789;53.216;5.624;2023-02-28T16:24:26;6.10;99.90
53876;DHT22;39789;53.216;5.624;2023-02-28T16:26:53;6.10;99.90
53876;DHT22;39789;53.216;5.624;2023-02-28T16:29:38;6.00;99.90
53876;DHT22;39789;53.216;5.624;2023-02-28T16:32:05;6.00;99.90
53876;DHT22;39789;53.216;5.624;2023-02-28T16:34:31;6.60;99.90
53876;DHT22;39789;53.216;5.624;2023-02-28T16:37:07;5.40;99.90
53876;DHT22;39789;53.216;5.624;2023-02-28T16:40:22;5.30;99.90
53876;DHT22;39789;53.216;5.624;2023-02-28T16:42:55;5.70;99.90
53876;DHT22;39789;53.216;5.624;2023-02-28T16:45:25;5.40;99.90
53876;DHT22;39789;53.216;5.624;2023-02-28T16:47:51;5.00;99.90
53876;DHT22;39789;53.216;5.624;2023-02-28T16:50:27;5.10;99.90
53876;DHT22;39789;53.216;5.624;2023-02-28T16:52:53;5.50;99.90
53876;DHT22;39789;53.216;5.624;2023-02-28T16:55:20;6.60;99.90
53876;DHT22;39789;53.216;5.624;2023-02-28T16:57:57;5.70;99.90
53876;DHT22;39789;53.216;5.624;2023-02-28T17:00:24;5.20;99.90
53876;DHT22;39789;53.216;5.624;2023-02-28T17:02:50;5.30;99.90
53876;DHT22;39789;53.216;5.624;2023-02-28T17:05:17;5.30;99.90
53876;DHT22;39789;53.216;5.624;2023-02-28T17:07:48;5.20;99.90
53876;DHT22;39789;53.216;5.624;2023-02-28T17:10:25;4.90;99.90
53876;DHT22;39789;53.216;5.624;2023-02-28T17:12:52;5.00;99.90
53876;DHT22;39789;53.216;5.624;2023-02-28T17:15:19;4.30;99.90
53876;DHT22;39789;53.216;5.624;2023-02-28T17:17:48;5.30;99.90
53876;DHT22;39789;53.216;5.624;2023-02-28T17:20:21;5.90;99.90
53876;DHT22;39789;53.216;5.624;2023-02-28T17:22:50;4.60;99.90
53876;DHT22;39789;53.216;5.624;2023-02-28T17:25:16;6.20;99.90
53876;DHT22;39789;53.216;5.624;2023-02-28T17:27:45;4.50;99.90
53876;DHT22;39789;53.216;5.624;2023-02-28T17:30:26;5.30;99.90
53876;DHT22;39789;53.216;5.624;2023-02-28T17:32:54;4.70;99.90
53876;DHT22;39789;53.216;5.624;2023-02-28T17:35:21;4.70;99.90
53876;DHT22;39789;53.216;5.624;2023-02-28T17:37:47;5.90;99.90
53876;DHT22;39789;53.216;5.624;2023-02-28T17:40:16;5.70;99.90
53876;DHT22;39789;53.216;5.624;2023-02-28T17:42:44;5.60;99.90
53876;DHT22;39789;53.216;5.624;2023-02-28T17:45:10;4.60;99.90
53876;DHT22;39789;53.216;5.624;2023-02-28T17:47:37;4.50;99.90
53876;DHT22;39789;53.216;5.624;2023-02-28T17:50:04;4.80;99.90
53876;DHT22;39789;53.216;5.624;2023-02-28T17:52:30;4.70;99.90
53876;DHT22;39789;53.216;5.624;2023-02-28T17:55:03;4.80;99.90
53876;DHT22;39789;53.216;5.624;2023-02-28T17:57:30;4.60;99.90
53876;DHT22;39789;53.216;5.624;2023-02-28T17:59:56;4.40;99.90
53876;DHT22;39789;53.216;5.624;2023-02-28T18:02:22;4.40;99.90
53876;DHT22;39789;53.216;5.624;2023-02-28T18:04:48;5.80;99.90
53876;DHT22;39789;53.216;5.624;2023-02-28T18:07:18;5.40;99.90
53876;DHT22;39789;53.216;5.624;2023-02-28T18:09:46;5.60;99.90
53876;DHT22;39789;53.216;5.624;2023-02-28T18:12:15;5.20;99.90
53876;DHT22;39789;53.216;5.624;2023-02-28T18:14:41;4.50;99.90
53876;DHT22;39789;53.216;5.624;2023-02-28T18:17:09;4.50;99.90
53876;DHT22;39789;53.216;5.624;2023-02-28T18:19:37;5.70;99.90
53876;DHT22;39789;53.216;5.624;2023-02-28T18:22:03;3.80;99.90
53876;DHT22;39789;53.216;5.624;2023-02-28T18:24:33;5.00;99.90
53876;DHT22;39789;53.216;5.624;2023-02-28T18:27:02;4.90;99.90
53876;DHT22;39789;53.216;5.624;2023-02-28T18:29:29;5.20;99.90
53876;DHT22;39789;53.216;5.624;2023-02-28T18:31:57;4.80;99.90
53876;DHT22;39789;53.216;5.624;2023-02-28T18:34:27;4.10;99.90
53876;DHT22;39789;53.216;5.624;2023-02-28T18:36:52;3.90;99.90
53876;DHT22;39789;53.216;5.624;2023-02-28T18:39:19;4.90;99.90
53876;DHT22;39789;53.216;5.624;2023-02-28T18:41:44;3.60;99.90
53876;DHT22;39789;53.216;5.624;2023-02-28T18:44:19;3.30;99.90
53876;DHT22;39789;53.216;5.624;2023-02-28T18:46:46;4.20;99.90
53876;DHT22;39789;53.216;5.624;2023-02-28T18:49:12;3.10;99.90
53876;DHT22;39789;53.216;5.624;2023-02-28T18:51:38;3.10;99.90
53876;DHT22;39789;53.216;5.624;2023-02-28T18:54:04;3.00;99.90
53876;DHT22;39789;53.216;5.624;2023-02-28T18:56:30;3.50;99.90
53876;DHT22;39789;53.216;5.624;2023-02-28T18:58:56;3.30;99.90
53876;DHT22;39789;53.216;5.624;2023-02-28T19:01:26;3.60;99.90
53876;DHT22;39789;53.216;5.624;2023-02-28T19:03:56;4.80;99.90
53876;DHT22;39789;53.216;5.624;2023-02-28T19:06:22;3.00;99.90
53876;DHT22;39789;53.216;5.624;2023-02-28T19:08:55;4.60;99.90
53876;DHT22;39789;53.216;5.624;2023-02-28T19:11:21;4.70;99.90
53876;DHT22;39789;53.216;5.624;2023-02-28T19:13:46;3.30;99.90
53876;DHT22;39789;53.216;5.624;2023-02-28T19:16:14;3.40;99.90
53876;DHT22;39789;53.216;5.624;2023-02-28T19:18:41;3.60;99.90
53876;DHT22;39789;53.216;5.624;2023-02-28T19:21:10;3.60;99.90
53876;DHT22;39789;53.216;5.624;2023-02-28T19:23:37;4.90;99.90
53876;DHT22;39789;53.216;5.624;2023-02-28T19:26:11;4.60;99.90
53876;DHT22;39789;53.216;5.624;2023-02-28T19:28:37;2.80;99.90
53876;DHT22;39789;53.216;5.624;2023-02-28T19:31:03;3.20;99.90
53876;DHT22;39789;53.216;5.624;2023-02-28T19:33:29;3.50;99.90
53876;DHT22;39789;53.216;5.624;2023-02-28T19:35:58;3.40;99.90
53876;DHT22;39789;53.216;5.624;2023-02-28T19:38:24;3.40;99.90
53876;DHT22;39789;53.216;5.624;2023-02-28T19:40:50;5.00;99.90
53876;DHT22;39789;53.216;5.624;2023-02-28T19:43:23;4.70;99.90
53876;DHT22;39789;53.216;5.624;2023-02-28T19:45:50;3.70;99.90
53876;DHT22;39789;53.216;5.624;2023-02-28T19:48:16;3.90;99.90
53876;DHT22;39789;53.216;5.624;2023-02-28T19:50:41;3.20;99.90
53876;DHT22;39789;53.216;5.624;2023-02-28T19:55:34;3.10;99.90
53876;DHT22;39789;53.216;5.624;2023-02-28T20:00:28;3.00;99.90
53876;DHT22;39789;53.216;5.624;2023-02-28T20:02:54;1.70;99.90
53876;DHT22;39789;53.216;5.624;2023-02-28T20:05:20;2.60;99.90
53876;DHT22;39789;53.216;5.624;2023-02-28T20:07:46;4.10;99.90
53876;DHT22;39789;53.216;5.624;2023-02-28T20:12:43;3.80;99.90
53876;DHT22;39789;53.216;5.624;2023-02-28T20:15:15;4.60;99.90
53876;DHT22;39789;53.216;5.624;2023-02-28T20:25:05;3.30;99.90
53876;DHT22;39789;53.216;5.624;2023-02-28T20:28:08;4.00;99.90
53876;DHT22;39789;53.216;5.624;2023-02-28T20:30:38;2.10;99.90
53876;DHT22;39789;53.216;5.624;2023-02-28T20:33:07;2.50;99.90
53876;DHT22;39789;53.216;5.624;2023-02-28T20:35:33;4.40;99.90
53876;DHT22;39789;53.216;5.624;2023-02-28T20:38:02;3.20;99.90
53876;DHT22;39789;53.216;5.624;2023-02-28T20:40:32;3.90;99.90
53876;DHT22;39789;53.216;5.624;2023-02-28T20:42:58;3.70;99.90
53876;DHT22;39789;53.216;5.624;2023-02-28T20:46:29;3.90;99.90
53876;DHT22;39789;53.216;5.624;2023-02-28T21:08:24;2.70;99.90
53876;DHT22;39789;53.216;5.624;2023-02-28T21:11:12;3.20;99.90
53876;DHT22;39789;53.216;5.624;2023-02-28T21:13:59;2.70;99.90
53876;DHT22;39789;53.216;5.624;2023-02-28T21:16:54;2.00;99.90
53876;DHT22;39789;53.216;5.624;2023-02-28T21:24:13;1.00;99.90
53876;DHT22;39789;53.216;5.624;2023-02-28T21:26:40;2.80;99.90
53876;DHT22;39789;53.216;5.624;2023-02-28T21:29:26;2.60;99.90
53876;DHT22;39789;53.216;5.624;2023-02-28T21:32:22;3.90;99.90
53876;DHT22;39789;53.216;5.624;2023-02-28T21:35:16;3.50;99.90
53876;DHT22;39789;53.216;5.624;2023-02-28T21:38:53;2.70;99.90
53876;DHT22;39789;53.216;5.624;2023-02-28T21:42:13;4.10;99.90
53876;DHT22;39789;53.216;5.624;2023-02-28T21:48:25;3.00;99.90
53876;DHT22;39789;53.216;5.624;2023-02-28T21:51:14;2.60;99.90
53876;DHT22;39789;53.216;5.624;2023-02-28T21:53:42;4.50;99.90
53876;DHT22;39789;53.216;5.624;2023-02-28T21:56:22;2.20;99.90
53876;DHT22;39789;53.216;5.624;2023-02-28T21:58:52;4.30;99.90
53876;DHT22;39789;53.216;5.624;2023-02-28T22:01:27;2.40;99.90
53876;DHT22;39789;53.216;5.624;2023-02-28T22:04:13;3.40;99.90
53876;DHT22;39789;53.216;5.624;2023-02-28T22:07:02;1.70;99.90
53876;DHT22;39789;53.216;5.624;2023-02-28T22:09:30;2.70;99.90
53876;DHT22;39789;53.216;5.624;2023-02-28T22:12:24;3.20;99.90
53876;DHT22;39789;53.216;5.624;2023-02-28T22:14:59;3.00;99.90
53876;DHT22;39789;53.216;5.624;2023-02-28T22:17:32;1.60;99.90
53876;DHT22;39789;53.216;5.624;2023-02-28T22:20:02;3.50;99.90
53876;DHT22;39789;53.216;5.624;2023-02-28T22:22:53;2.30;99.90
53876;DHT22;39789;53.216;5.624;2023-02-28T22:25:22;3.80;99.90
53876;DHT22;39789;53.216;5.624;2023-02-28T22:27:49;2.20;99.90
53876;DHT22;39789;53.216;5.624;2023-02-28T22:30:16;2.80;99.90
53876;DHT22;39789;53.216;5.624;2023-02-28T22:32:44;2.60;99.90
53876;DHT22;39789;53.216;5.624;2023-02-28T22:35:15;3.50;99.90
53876;DHT22;39789;53.216;5.624;2023-02-28T22:37:50;3.50;99.90
53876;DHT22;39789;53.216;5.624;2023-02-28T22:40:31;2.60;99.90
53876;DHT22;39789;53.216;5.624;2023-02-28T22:43:24;2.80;99.90
53876;DHT22;39789;53.216;5.624;2023-02-28T22:46:03;2.40;99.90
53876;DHT22;39789;53.216;5.624;2023-02-28T22:48:38;1.00;99.90
53876;DHT22;39789;53.216;5.624;2023-02-28T22:51:27;3.60;99.90
53876;DHT22;39789;53.216;5.624;2023-02-28T22:56:38;1.90;99.90
53876;DHT22;39789;53.216;5.624;2023-02-28T23:05:35;1.80;99.90
53876;DHT22;39789;53.216;5.624;2023-02-28T23:08:54;1.00;99.90
53876;DHT22;39789;53.216;5.624;2023-02-28T23:15:50;2.80;99.90
53876;DHT22;39789;53.216;5.624;2023-02-28T23:18:25;2.50;99.90
53876;DHT22;39789;53.216;5.624;2023-02-28T23:20:56;3.90;99.90
53876;DHT22;39789;53.216;5.624;2023-02-28T23:23:36;2.10;99.90
53876;DHT22;39789;53.216;5.624;2023-02-28T23:26:14;1.40;99.90
53876;DHT22;39789;53.216;5.624;2023-02-28T23:28:42;2.60;99.90
53876;DHT22;39789;53.216;5.624;2023-02-28T23:35:44;1.10;99.90
53876;DHT22;39789;53.216;5.624;2023-02-28T23:38:34;2.30;99.90
53876;DHT22;39789;53.216;5.624;2023-02-28T23:41:57;1.70;99.90
53876;DHT22;39789;53.216;5.624;2023-02-28T23:44:52;1.80;99.90
53876;DHT22;39789;53.216;5.624;2023-02-28T23:50:23;0.80;99.90
53876;DHT22;39789;53.216;5.624;2023-02-28T23:52:52;0.80;99.90
53876;DHT22;39789;53.216;5.624;2023-02-28T23:55:18;1.30;99.90
